Time;durP1;ratioP1;P1;durP2;ratioP2;P2;SDS_P1;SDS_P2;PMS_P1;PMS_P2;Temp;Humidity;BMP_temperature;BMP_pressure;BME280_temperature;BME280_humidity;BME280_pressure;Samples;Min_cycle;Max_cycle;Signal;HPM_P1;HPM_P2
2024/04/01 00:02:29;;;;;;;1.47;0.50;;;;;;;;;;6250827;28;20026;-76
2024/04/01 00:05:29;;;;;;;2.80;0.93;;;;;;;;;;6249159;28;20107;-77
2024/04/01 00:08:29;;;;;;;2.80;0.65;;;;;;;;;;6249494;28;20033;-77
2024/04/01 00:11:29;;;;;;;4.47;0.80;;;;;;;;;;6248617;28;20025;-77
2024/04/01 00:14:30;;;;;;;2.70;0.70;;;;;;;;;;6249018;28;20466;-77
2024/04/01 00:17:30;;;;;;;2.17;0.80;;;;;;;;;;6248408;28;20496;-77
2024/04/01 00:20:30;;;;;;;3.50;0.80;;;;;;;;;;6247459;28;20029;-77
2024/04/01 00:23:30;;;;;;;3.83;0.90;;;;;;;;;;6245511;28;20033;-76
2024/04/01 00:26:31;;;;;;;3.83;0.80;;;;;;;;;;6250199;28;20467;-77
2024/04/01 00:29:31;;;;;;;4.20;0.80;;;;;;;;;;6249554;28;20466;-76
2024/04/01 00:32:33;;;;;;;3.70;0.70;;;;;;;;;;6241563;28;20489;-76
2024/04/01 00:35:36;;;;;;;5.00;1.13;;;;;;;;;;6236917;28;20288;-76
2024/04/01 00:38:37;;;;;;;6.50;1.17;;;;;;;;;;6249165;28;20104;-76
2024/04/01 00:41:37;;;;;;;4.70;0.70;;;;;;;;;;6235702;28;20030;-76
2024/04/01 00:44:37;;;;;;;3.70;0.80;;;;;;;;;;6248169;28;20500;-76
2024/04/01 00:47:37;;;;;;;5.70;0.70;;;;;;;;;;6249363;28;20083;-76
2024/04/01 00:50:38;;;;;;;4.63;0.77;;;;;;;;;;6248973;28;20026;-76
2024/04/01 00:53:39;;;;;;;2.92;0.65;;;;;;;;;;6249105;28;20036;-76
2024/04/01 00:56:41;;;;;;;4.30;0.82;;;;;;;;;;6249950;28;20096;-76
2024/04/01 00:59:41;;;;;;;5.85;1.20;;;;;;;;;;6242348;28;20466;-76
2024/04/01 01:02:41;;;;;;;1.87;0.70;;;;;;;;;;6246971;28;20029;-77
2024/04/01 01:05:41;;;;;;;3.73;0.93;;;;;;;;;;6248656;28;20025;-76
2024/04/01 01:08:43;;;;;;;2.60;0.67;;;;;;;;;;6247731;28;20504;-76
2024/04/01 01:11:43;;;;;;;9.52;1.38;;;;;;;;;;6248906;28;20056;-77
2024/04/01 01:14:44;;;;;;;2.67;0.70;;;;;;;;;;6249126;28;20082;-76
2024/04/01 01:17:45;;;;;;;5.77;1.00;;;;;;;;;;6248503;28;20120;-77
2024/04/01 01:20:45;;;;;;;7.65;1.10;;;;;;;;;;6246823;28;20040;-77
2024/04/01 01:23:45;;;;;;;8.53;1.37;;;;;;;;;;6247632;28;20033;-77
2024/04/01 01:26:46;;;;;;;5.50;1.37;;;;;;;;;;6248811;28;20474;-76
2024/04/01 01:29:46;;;;;;;5.73;1.20;;;;;;;;;;6248026;28;20551;-77
2024/04/01 01:32:54;;;;;;;3.47;1.00;;;;;;;;;;6247712;28;20013;-77
2024/04/01 01:35:55;;;;;;;5.18;1.20;;;;;;;;;;6239180;28;20140;-77
2024/04/01 01:38:55;;;;;;;4.38;1.48;;;;;;;;;;6242797;28;20481;-77
2024/04/01 01:41:55;;;;;;;5.23;1.10;;;;;;;;;;6248799;28;20029;-77
2024/04/01 01:44:55;;;;;;;3.77;1.10;;;;;;;;;;6248600;28;20029;-77
2024/04/01 01:47:56;;;;;;;6.60;1.20;;;;;;;;;;6243440;28;20062;-76
2024/04/01 01:50:56;;;;;;;9.35;1.25;;;;;;;;;;6247572;28;20022;-77
2024/04/01 01:53:57;;;;;;;5.33;1.17;;;;;;;;;;6246271;28;20104;-77
2024/04/01 01:56:57;;;;;;;3.92;0.90;;;;;;;;;;6248523;28;20033;-77
2024/04/01 01:59:58;;;;;;;7.57;1.33;;;;;;;;;;6248339;28;20048;-77
2024/04/01 02:02:58;;;;;;;4.43;1.25;;;;;;;;;;6257976;28;20359;-77
2024/04/01 02:05:58;;;;;;;7.47;1.17;;;;;;;;;;6236226;28;20033;-77
2024/04/01 02:08:59;;;;;;;5.23;1.40;;;;;;;;;;6265056;28;20551;-77
2024/04/01 02:12:00;;;;;;;5.03;1.23;;;;;;;;;;6243283;28;20462;-77
2024/04/01 02:15:00;;;;;;;;;;;;;;;;;;6229643;28;20382;-77
2024/04/01 02:18:00;;;;;;;8.83;1.30;;;;;;;;;;6245421;28;19920;-77
2024/04/01 02:21:01;;;;;;;4.03;1.27;;;;;;;;;;6247724;28;20530;-77
2024/04/01 02:24:01;;;;;;;7.78;1.50;;;;;;;;;;6240503;28;20082;-77
2024/04/01 02:27:01;;;;;;;6.57;1.30;;;;;;;;;;6247596;28;20028;-77
2024/04/01 02:30:02;;;;;;;12.67;1.40;;;;;;;;;;6230116;28;20018;-77
2024/04/01 02:33:02;;;;;;;4.68;1.00;;;;;;;;;;6239900;28;20045;-77
2024/04/01 02:36:03;;;;;;;6.30;1.40;;;;;;;;;;6247031;28;20529;-77
2024/04/01 02:39:04;;;;;;;6.35;1.38;;;;;;;;;;6245317;28;20064;-77
2024/04/01 02:42:04;;;;;;;6.20;1.25;;;;;;;;;;6245960;28;20124;-77
2024/04/01 02:45:05;;;;;;;6.13;1.70;;;;;;;;;;6248000;28;20028;-77
2024/04/01 02:48:05;;;;;;;8.57;1.37;;;;;;;;;;6247264;28;20470;-78
2024/04/01 02:51:06;;;;;;;5.35;1.55;;;;;;;;;;6247976;28;20772;-77
2024/04/01 02:54:06;;;;;;;5.67;1.37;;;;;;;;;;6247260;28;20366;-77
2024/04/01 02:57:06;;;;;;;4.07;1.05;;;;;;;;;;6247616;28;20485;-77
2024/04/01 03:00:07;;;;;;;5.30;1.27;;;;;;;;;;6254294;28;20029;-77
2024/04/01 03:03:07;;;;;;;10.68;1.63;;;;;;;;;;6245703;28;20355;-77
2024/04/01 03:06:07;;;;;;;6.67;1.50;;;;;;;;;;6251072;28;20021;-77
2024/04/01 03:09:08;;;;;;;6.70;1.77;;;;;;;;;;6250697;28;20022;-77
2024/04/01 03:12:08;;;;;;;6.53;1.70;;;;;;;;;;6253379;28;20031;-77
2024/04/01 03:15:08;;;;;;;7.40;1.50;;;;;;;;;;6245281;28;20462;-77
2024/04/01 03:18:09;;;;;;;7.60;1.52;;;;;;;;;;6240511;28;20593;-77
2024/04/01 03:21:09;;;;;;;5.20;1.20;;;;;;;;;;6250434;28;20397;-77
2024/04/01 03:24:09;;;;;;;11.10;2.10;;;;;;;;;;6251847;28;20508;-77
2024/04/01 03:27:10;;;;;;;11.87;1.80;;;;;;;;;;6251425;28;20060;-77
2024/04/01 03:30:12;;;;;;;10.40;1.75;;;;;;;;;;6251236;28;20025;-77
2024/04/01 03:33:13;;;;;;;6.20;1.60;;;;;;;;;;6250737;28;20022;-77
2024/04/01 03:36:14;;;;;;;10.23;1.83;;;;;;;;;;6239977;28;20576;-77
2024/04/01 03:39:14;;;;;;;8.60;1.60;;;;;;;;;;6245614;28;20046;-77
2024/04/01 03:42:14;;;;;;;7.33;1.43;;;;;;;;;;6251283;28;20025;-78
2024/04/01 03:45:15;;;;;;;6.22;1.42;;;;;;;;;;6250270;28;20022;-77
2024/04/01 03:48:15;;;;;;;8.57;1.17;;;;;;;;;;6251042;28;20079;-77
2024/04/01 03:51:15;;;;;;;8.77;1.63;;;;;;;;;;6250359;28;20029;-77
2024/04/01 03:54:16;;;;;;;9.37;2.17;;;;;;;;;;6250873;28;20029;-77
2024/04/01 03:57:16;;;;;;;6.70;1.92;;;;;;;;;;6237569;28;20273;-76
2024/04/01 04:00:17;;;;;;;9.33;1.70;;;;;;;;;;6250797;28;20064;-76
2024/04/01 04:03:18;;;;;;;13.13;2.33;;;;;;;;;;6250099;28;20029;-76
2024/04/01 04:06:18;;;;;;;12.75;2.05;;;;;;;;;;6252705;28;20290;-76
2024/04/01 04:09:20;;;;;;;6.65;2.03;;;;;;;;;;6248458;28;20025;-76
2024/04/01 04:12:20;;;;;;;8.50;1.63;;;;;;;;;;6248215;28;20033;-76
2024/04/01 04:15:20;;;;;;;7.67;1.60;;;;;;;;;;6229489;28;20037;-76
2024/04/01 04:18:20;;;;;;;12.30;1.87;;;;;;;;;;6248403;28;20029;-77
2024/04/01 04:21:21;;;;;;;12.30;2.13;;;;;;;;;;6272021;28;20028;-76
2024/04/01 04:24:24;;;;;;;10.13;2.45;;;;;;;;;;6264339;28;20037;-76
2024/04/01 04:27:25;;;;;;;14.98;1.98;;;;;;;;;;6249993;28;20171;-77
2024/04/01 04:30:25;;;;;;;9.47;1.60;;;;;;;;;;6265861;28;20033;-77
2024/04/01 04:33:25;;;;;;;7.60;1.58;;;;;;;;;;6238268;28;20426;-76
2024/04/01 04:36:26;;;;;;;5.87;1.83;;;;;;;;;;6250205;28;20045;-76
2024/04/01 04:39:26;;;;;;;11.68;2.17;;;;;;;;;;6252976;28;20371;-76
2024/04/01 04:42:26;;;;;;;8.63;1.50;;;;;;;;;;6237292;28;20032;-77
2024/04/01 04:45:28;;;;;;;7.03;1.63;;;;;;;;;;6246272;28;20051;-76
2024/04/01 04:48:29;;;;;;;10.07;2.22;;;;;;;;;;6255873;28;20385;-76
2024/04/01 04:51:29;;;;;;;8.23;2.00;;;;;;;;;;6249736;28;20026;-77
2024/04/01 04:54:30;;;;;;;5.90;1.40;;;;;;;;;;6241399;28;20022;-76
2024/04/01 04:57:30;;;;;;;7.57;2.00;;;;;;;;;;6272126;28;20033;-77
2024/04/01 05:00:31;;;;;;;7.57;1.67;;;;;;;;;;6255592;28;20128;-76
2024/04/01 05:03:32;;;;;;;7.72;1.63;;;;;;;;;;6248781;28;20083;-77
2024/04/01 05:06:32;;;;;;;11.88;1.80;;;;;;;;;;6272836;28;20028;-77
2024/04/01 05:09:33;;;;;;;11.37;1.83;;;;;;;;;;6262339;28;20526;-78
2024/04/01 05:12:33;;;;;;;6.90;2.03;;;;;;;;;;6246065;28;20088;-77
2024/04/01 05:15:33;;;;;;;7.60;1.77;;;;;;;;;;6237803;28;20021;-77
2024/04/01 05:18:34;;;;;;;10.40;1.85;;;;;;;;;;6250423;28;20044;-77
2024/04/01 05:21:34;;;;;;;7.97;2.17;;;;;;;;;;6254080;28;20040;-77
2024/04/01 05:24:35;;;;;;;8.93;2.03;;;;;;;;;;6250730;28;20042;-77
2024/04/01 05:27:35;;;;;;;9.10;1.80;;;;;;;;;;6233296;28;20029;-77
2024/04/01 05:30:35;;;;;;;11.37;2.17;;;;;;;;;;6265766;28;20087;-77
2024/04/01 05:33:36;;;;;;;10.55;2.10;;;;;;;;;;6245281;28;20079;-77
2024/04/01 05:36:36;;;;;;;8.67;1.73;;;;;;;;;;6247589;28;20049;-77
2024/04/01 05:39:36;;;;;;;14.13;2.17;;;;;;;;;;6232467;28;20033;-76
2024/04/01 05:42:36;;;;;;;10.43;2.47;;;;;;;;;;6266859;28;20093;-77
2024/04/01 05:45:37;;;;;;;9.80;2.13;;;;;;;;;;6253667;28;20512;-77
2024/04/01 05:48:37;;;;;;;13.02;2.35;;;;;;;;;;6250753;28;20461;-77
2024/04/01 05:51:37;;;;;;;10.33;1.80;;;;;;;;;;6270211;28;20420;-77
2024/04/01 05:54:37;;;;;;;13.07;2.43;;;;;;;;;;6271893;28;20381;-77
2024/04/01 05:57:38;;;;;;;10.80;2.53;;;;;;;;;;6250259;28;20466;-76
2024/04/01 06:00:38;;;;;;;10.33;2.20;;;;;;;;;;6248446;28;20489;-77
2024/04/01 06:03:38;;;;;;;11.30;2.47;;;;;;;;;;6242702;28;20124;-77
2024/04/01 06:06:39;;;;;;;11.80;2.70;;;;;;;;;;6248000;28;20037;-77
2024/04/01 06:09:39;;;;;;;7.32;2.20;;;;;;;;;;6245922;28;20048;-77
2024/04/01 06:12:39;;;;;;;11.93;2.17;;;;;;;;;;6255604;28;20486;-76
2024/04/01 06:15:39;;;;;;;7.40;2.10;;;;;;;;;;6255746;28;20532;-77
2024/04/01 06:18:40;;;;;;;10.53;2.10;;;;;;;;;;6248102;28;20276;-76
2024/04/01 06:21:40;;;;;;;9.50;1.93;;;;;;;;;;6227858;28;20087;-77
2024/04/01 06:24:40;;;;;;;9.30;2.13;;;;;;;;;;6250346;28;20084;-79
2024/04/01 06:27:40;;;;;;;11.20;2.40;;;;;;;;;;6252754;28;20517;-78
2024/04/01 06:30:41;;;;;;;;;;;;;;;;;;6271518;28;20021;-79
2024/04/01 06:33:41;;;;;;;7.55;1.50;;;;;;;;;;6271410;28;19905;-78
2024/04/01 06:36:41;;;;;;;8.98;2.00;;;;;;;;;;6270756;28;20401;-78
2024/04/01 06:39:42;;;;;;;10.20;2.20;;;;;;;;;;6265981;28;20391;-76
2024/04/01 06:42:42;;;;;;;;;;;;;;;;;;6249009;28;20102;-79
2024/04/01 06:46:02;;;;;;;7.88;1.60;;;;;;;;;;6243040;28;19905;-81
2024/04/01 06:49:03;;;;;;;12.50;1.92;;;;;;;;;;6250943;28;20497;-79
2024/04/01 06:52:03;;;;;;;;;;;;;;;;;;6252283;28;20083;-80
2024/04/01 06:55:04;;;;;;;12.00;1.90;;;;;;;;;;6254240;28;19917;-81
2024/04/01 06:58:06;;;;;;;8.02;1.95;;;;;;;;;;6268392;28;20036;-81
2024/04/01 07:01:07;;;;;;;12.90;2.30;;;;;;;;;;6246965;28;20030;-80
2024/04/01 07:04:07;;;;;;;10.02;2.25;;;;;;;;;;6269672;28;20489;-80
2024/04/01 07:07:07;;;;;;;;;;;;;;;;;;6273266;28;20032;-80
2024/04/01 07:10:07;;;;;;;10.07;2.10;;;;;;;;;;6259020;28;19916;-79
2024/04/01 07:13:08;;;;;;;11.53;2.13;;;;;;;;;;6247126;28;20122;-79
2024/04/01 07:16:08;;;;;;;;;;;;;;;;;;6251231;28;20075;-79
2024/04/01 07:19:08;;;;;;;12.77;2.30;;;;;;;;;;6250522;28;19916;-79
2024/04/01 07:22:08;;;;;;;8.40;2.37;;;;;;;;;;6263519;28;20370;-79
2024/04/01 07:25:08;;;;;;;;;;;;;;;;;;6257720;28;20405;-79
2024/04/01 07:28:09;;;;;;;9.98;2.00;;;;;;;;;;6253162;28;19912;-79
2024/04/01 07:31:09;;;;;;;;;;;;;;;;;;6260291;28;20707;-79
2024/04/01 07:34:09;;;;;;;9.82;2.08;;;;;;;;;;6254034;28;19951;-79
2024/04/01 07:37:09;;;;;;;;;;;;;;;;;;6263091;28;20081;-79
2024/04/01 07:40:10;;;;;;;8.55;1.75;;;;;;;;;;6259602;28;19913;-79
2024/04/01 07:43:10;;;;;;;;;;;;;;;;;;6260071;28;20482;-79
2024/04/01 07:46:10;;;;;;;10.23;1.90;;;;;;;;;;6252040;28;19995;-79
2024/04/01 07:49:10;;;;;;;;;;;;;;;;;;6250566;28;20100;-79
2024/04/01 07:52:10;;;;;;;8.80;1.80;;;;;;;;;;6249518;28;19947;-79
2024/04/01 07:55:10;;;;;;;;;;;;;;;;;;6252183;28;20120;-79
2024/04/01 07:58:11;;;;;;;9.07;2.10;;;;;;;;;;6249037;28;19913;-79
2024/04/01 08:01:13;;;;;;;;;;;;;;;;;;6243918;28;20030;-79
2024/04/01 08:04:16;;;;;;;;;;;;;;;;;;6250371;28;19905;-79
2024/04/01 08:07:16;;;;;;;8.95;1.77;;;;;;;;;;6257335;28;19913;-80
2024/04/01 08:10:16;;;;;;;;;;;;;;;;;;6247713;28;20029;-79
2024/04/01 08:13:17;;;;;;;9.00;1.73;;;;;;;;;;6248124;28;19909;-80
2024/04/01 08:16:17;;;;;;;;;;;;;;;;;;6235047;28;20022;-80
2024/04/01 08:19:17;;;;;;;9.48;1.88;;;;;;;;;;6225090;28;19910;-79
2024/04/01 08:22:17;;;;;;;;;;;;;;;;;;6259435;28;20071;-80
2024/04/01 08:25:17;;;;;;;8.27;1.48;;;;;;;;;;6255835;28;19911;-79
2024/04/01 08:28:18;;;;;;;;;;;;;;;;;;6241368;28;20032;-81
2024/04/01 08:31:18;;;;;;;13.88;2.13;;;;;;;;;;6241217;28;19996;-81
2024/04/01 08:34:18;;;;;;;;;;;;;;;;;;6257078;28;20029;-81
2024/04/01 08:37:19;;;;;;;10.18;2.45;;;;;;;;;;6246372;28;20038;-81
2024/04/01 08:40:19;;;;;;;;;;;;;;;;;;6250711;28;20056;-81
2024/04/01 08:43:26;;;;;;;10.73;2.37;;;;;;;;;;6251187;28;20349;-82
2024/04/01 08:46:28;;;;;;;11.25;2.60;;;;;;;;;;6264339;28;20083;-81
2024/04/01 08:49:43;;;;;;;11.38;2.97;;;;;;;;;;6248701;28;20450;-81
2024/04/01 08:52:48;;;;;;;12.50;2.42;;;;;;;;;;6249182;28;20112;-82
2024/04/01 08:55:49;;;;;;;15.32;2.70;;;;;;;;;;6247968;28;20038;-81
2024/04/01 08:58:49;;;;;;;;;;;;;;;;;;6257688;28;20036;-81
2024/04/01 09:01:49;;;;;;;10.25;2.20;;;;;;;;;;6247825;28;19909;-81
2024/04/01 09:04:49;;;;;;;;;;;;;;;;;;6248412;28;20056;-81
2024/04/01 09:07:50;;;;;;;14.65;1.90;;;;;;;;;;6249065;28;19992;-81
2024/04/01 09:10:53;;;;;;;8.90;2.47;;;;;;;;;;6245730;28;20138;-81
2024/04/01 09:13:53;;;;;;;14.05;1.90;;;;;;;;;;6248751;28;20060;-81
2024/04/01 09:16:54;;;;;;;8.00;2.05;;;;;;;;;;6249408;28;20040;-81
2024/04/01 09:20:01;;;;;;;9.25;2.55;;;;;;;;;;6256642;28;20139;-81
2024/04/01 09:23:01;;;;;;;9.38;2.10;;;;;;;;;;6256454;28;20052;-82
2024/04/01 09:26:02;;;;;;;10.10;2.57;;;;;;;;;;6249612;28;20060;-81
2024/04/01 09:29:02;;;;;;;9.93;2.37;;;;;;;;;;6246654;28;20756;-82
2024/04/01 09:32:02;;;;;;;11.82;2.67;;;;;;;;;;6245757;28;20268;-84
2024/04/01 09:35:03;;;;;;;13.93;3.53;;;;;;;;;;6247621;28;20053;-82
2024/04/01 09:38:03;;;;;;;12.65;3.13;;;;;;;;;;6248401;28;20025;-81
2024/04/01 09:41:05;;;;;;;11.10;2.30;;;;;;;;;;6247654;28;20065;-81
2024/04/01 09:44:07;;;;;;;10.80;2.83;;;;;;;;;;6248799;28;20390;-81
2024/04/01 09:47:07;;;;;;;12.27;2.42;;;;;;;;;;6245711;28;20053;-82
2024/04/01 09:50:07;;;;;;;13.60;2.83;;;;;;;;;;6247312;28;20025;-80
2024/04/01 09:53:08;;;;;;;14.82;2.53;;;;;;;;;;6247866;28;20398;-79
2024/04/01 09:56:27;;;;;;;9.57;2.07;;;;;;;;;;6260581;28;20039;-80
2024/04/01 09:59:45;;;;;;;10.68;2.42;;;;;;;;;;6257976;28;20618;-80
2024/04/01 10:02:48;;;;;;;8.65;2.15;;;;;;;;;;6246009;28;20095;-84
2024/04/01 10:06:01;;;;;;;13.48;2.42;;;;;;;;;;6251009;28;20052;-80
2024/04/01 10:09:20;;;;;;;13.07;2.60;;;;;;;;;;6239227;28;20021;-80
2024/04/01 10:12:44;;;;;;;10.20;2.45;;;;;;;;;;6241232;28;20057;-80
2024/04/01 10:15:56;;;;;;;10.40;2.67;;;;;;;;;;6237736;28;20029;-80
2024/04/01 10:18:59;;;;;;;14.10;2.88;;;;;;;;;;6250265;28;20577;-80
2024/04/01 10:22:00;;;;;;;10.93;2.38;;;;;;;;;;6247168;28;20037;-82
2024/04/01 10:25:06;;;;;;;14.40;2.00;;;;;;;;;;6247581;28;20458;-80
2024/04/01 10:28:06;;;;;;;10.07;2.58;;;;;;;;;;6244519;28;20628;-80
2024/04/01 10:31:25;;;;;;;11.10;2.23;;;;;;;;;;6248015;28;20033;-80
2024/04/01 10:34:40;;;;;;;14.80;2.40;;;;;;;;;;6246468;28;20041;-81
2024/04/01 10:38:03;;;;;;;13.05;2.75;;;;;;;;;;6247382;28;20038;-79
2024/04/01 10:41:25;;;;;;;13.95;2.90;;;;;;;;;;6244693;28;20402;-78
2024/04/01 10:44:28;;;;;;;10.07;2.20;;;;;;;;;;6243805;28;20087;-81
2024/04/01 10:47:55;;;;;;;13.70;2.72;;;;;;;;;;6245727;28;20049;-79
2024/04/01 10:51:14;;;;;;;11.45;2.30;;;;;;;;;;6242115;28;20032;-79
2024/04/01 10:54:18;;;;;;;11.18;2.38;;;;;;;;;;6245914;28;20047;-80
2024/04/01 10:57:37;;;;;;;10.73;2.70;;;;;;;;;;6234807;28;20048;-76
2024/04/01 11:00:56;;;;;;;10.63;2.28;;;;;;;;;;6246157;28;20021;-77
2024/04/01 11:04:25;;;;;;;17.05;2.65;;;;;;;;;;6256679;28;20550;-76
2024/04/01 11:07:31;;;;;;;13.43;2.17;;;;;;;;;;6210119;28;20065;-76
2024/04/01 11:10:53;;;;;;;10.48;2.35;;;;;;;;;;6248218;28;20439;-80
2024/04/01 11:13:53;;;;;;;12.13;2.00;;;;;;;;;;6241322;28;20021;-77
2024/04/01 11:16:55;;;;;;;13.32;2.40;;;;;;;;;;6256213;28;20056;-77
2024/04/01 11:20:04;;;;;;;13.30;2.30;;;;;;;;;;6245506;28;20038;-77
2024/04/01 11:23:23;;;;;;;10.27;2.13;;;;;;;;;;6246619;28;20021;-77
2024/04/01 11:26:26;;;;;;;14.02;2.92;;;;;;;;;;6247032;28;20055;-77
2024/04/01 11:29:42;;;;;;;11.95;2.63;;;;;;;;;;6227003;28;20474;-77
2024/04/01 11:32:45;;;;;;;10.32;2.55;;;;;;;;;;6250156;28;20036;-77
2024/04/01 11:35:46;;;;;;;14.05;2.80;;;;;;;;;;6246350;28;20052;-77
2024/04/01 11:38:56;;;;;;;12.15;2.60;;;;;;;;;;6250849;28;20025;-76
2024/04/01 11:42:00;;;;;;;5.93;2.45;;;;;;;;;;6253856;28;20109;-76
2024/04/01 11:45:04;;;;;;;6.00;1.70;;;;;;;;;;6272327;28;20041;-76
2024/04/01 11:48:05;;;;;;;11.15;2.13;;;;;;;;;;6252515;28;20033;-76
2024/04/01 11:51:05;;;;;;;13.38;2.72;;;;;;;;;;6249505;28;20025;-76
2024/04/01 11:54:06;;;;;;;7.45;1.85;;;;;;;;;;6246673;28;20113;-76
2024/04/01 11:57:06;;;;;;;12.10;2.20;;;;;;;;;;6241487;28;20525;-76
2024/04/01 12:00:07;;;;;;;8.60;2.00;;;;;;;;;;6248687;28;20053;-76
2024/04/01 12:03:08;;;;;;;8.60;2.03;;;;;;;;;;6241865;28;20120;-76
2024/04/01 12:06:14;;;;;;;12.00;2.40;;;;;;;;;;6237456;28;20535;-77
2024/04/01 12:09:17;;;;;;;8.02;2.00;;;;;;;;;;6245325;28;20035;-77
2024/04/01 12:12:17;;;;;;;14.27;2.47;;;;;;;;;;6248710;28;20025;-76
2024/04/01 12:15:18;;;;;;;10.65;2.70;;;;;;;;;;6250999;28;20018;-76
2024/04/01 12:18:20;;;;;;;11.25;2.40;;;;;;;;;;6249221;28;20047;-76
2024/04/01 12:21:21;;;;;;;12.30;2.90;;;;;;;;;;6246976;28;20041;-76
2024/04/01 12:24:22;;;;;;;14.90;2.22;;;;;;;;;;6250216;28;20059;-76
2024/04/01 12:27:23;;;;;;;9.35;2.50;;;;;;;;;;6247199;28;20071;-76
2024/04/01 12:30:26;;;;;;;9.13;2.03;;;;;;;;;;6250506;28;20049;-76
2024/04/01 12:33:27;;;;;;;12.35;2.45;;;;;;;;;;6236555;28;20026;-76
2024/04/01 12:36:31;;;;;;;13.25;3.40;;;;;;;;;;6225129;28;20491;-76
2024/04/01 12:39:31;;;;;;;18.20;2.78;;;;;;;;;;6238387;28;20040;-76
2024/04/01 12:42:32;;;;;;;8.90;2.37;;;;;;;;;;6250496;28;20025;-76
2024/04/01 12:45:32;;;;;;;10.40;2.90;;;;;;;;;;6251131;28;20271;-76
2024/04/01 12:48:33;;;;;;;15.05;3.30;;;;;;;;;;6272802;28;20115;-76
2024/04/01 12:51:35;;;;;;;14.90;3.10;;;;;;;;;;6247533;28;20112;-77
2024/04/01 12:54:35;;;;;;;14.15;2.83;;;;;;;;;;6251122;28;20035;-77
2024/04/01 12:57:55;;;;;;;13.35;3.05;;;;;;;;;;6249379;28;20029;-76
2024/04/01 13:01:13;;;;;;;13.57;2.88;;;;;;;;;;6249178;28;20037;-76
2024/04/01 13:04:16;;;;;;;17.48;3.10;;;;;;;;;;6248265;28;20032;-76
2024/04/01 13:07:25;;;;;;;17.13;3.25;;;;;;;;;;6231231;28;20580;-76
2024/04/01 13:10:27;;;;;;;14.82;3.47;;;;;;;;;;6246719;28;20068;-77
2024/04/01 13:13:46;;;;;;;15.05;3.28;;;;;;;;;;6256636;28;20025;-76
2024/04/01 13:16:55;;;;;;;14.05;3.45;;;;;;;;;;6245456;28;20035;-76
2024/04/01 13:20:06;;;;;;;17.55;3.17;;;;;;;;;;6251549;28;20108;-76
2024/04/01 13:23:19;;;;;;;15.60;4.00;;;;;;;;;;6247912;28;20061;-76
2024/04/01 13:26:24;;;;;;;18.20;3.70;;;;;;;;;;6245039;28;20064;-76
2024/04/01 13:29:34;;;;;;;18.48;3.80;;;;;;;;;;6238392;28;20021;-76
2024/04/01 13:32:40;;;;;;;17.20;4.20;;;;;;;;;;6247655;28;20075;-76
2024/04/01 13:35:59;;;;;;;17.33;4.00;;;;;;;;;;6245683;28;20788;-76
2024/04/01 13:39:10;;;;;;;17.08;4.00;;;;;;;;;;6247795;28;20120;-76
2024/04/01 13:42:14;;;;;;;17.77;4.47;;;;;;;;;;6244697;28;20025;-76
2024/04/01 13:45:20;;;;;;;17.75;4.25;;;;;;;;;;6249030;28;20013;-76
2024/04/01 13:48:20;;;;;;;14.88;4.10;;;;;;;;;;6247106;28;20029;-78
2024/04/01 13:51:35;;;;;;;13.80;3.70;;;;;;;;;;6251741;28;20509;-76
2024/04/01 13:54:38;;;;;;;14.90;3.90;;;;;;;;;;6247400;28;20043;-76
2024/04/01 13:57:45;;;;;;;10.43;2.53;;;;;;;;;;6248851;28;20030;-75
2024/04/01 14:00:53;;;;;;;5.45;2.10;;;;;;;;;;6250865;28;20304;-75
2024/04/01 14:04:14;;;;;;;6.13;1.52;;;;;;;;;;6246613;28;20029;-76
2024/04/01 14:07:16;;;;;;;4.95;1.15;;;;;;;;;;6235619;28;20044;-75
2024/04/01 14:10:35;;;;;;;4.00;1.02;;;;;;;;;;6244144;28;20034;-76
2024/04/01 14:13:51;;;;;;;3.70;0.70;;;;;;;;;;6240117;28;20037;-75
2024/04/01 14:16:58;;;;;;;2.72;0.90;;;;;;;;;;6248047;28;20052;-76
2024/04/01 14:20:12;;;;;;;1.70;0.50;;;;;;;;;;6244672;28;20493;-75
2024/04/01 14:23:14;;;;;;;1.98;0.70;;;;;;;;;;6223148;28;20112;-75
2024/04/01 14:26:16;;;;;;;2.30;0.70;;;;;;;;;;6226038;28;20041;-75
2024/04/01 14:29:16;;;;;;;3.42;0.60;;;;;;;;;;6247857;28;20117;-75
2024/04/01 14:32:17;;;;;;;2.83;0.52;;;;;;;;;;6246961;28;20033;-75
2024/04/01 14:35:17;;;;;;;1.42;0.43;;;;;;;;;;6247088;28;20061;-75
2024/04/01 14:38:17;;;;;;;2.08;0.40;;;;;;;;;;6239600;28;20481;-76
2024/04/01 14:41:19;;;;;;;1.10;0.40;;;;;;;;;;6248060;28;20049;-75
2024/04/01 14:44:19;;;;;;;1.15;0.45;;;;;;;;;;6247727;28;20421;-75
2024/04/01 14:47:20;;;;;;;1.73;0.53;;;;;;;;;;6246220;28;20120;-75
2024/04/01 14:50:23;;;;;;;1.77;0.50;;;;;;;;;;6245450;28;20304;-75
2024/04/01 14:53:24;;;;;;;5.90;0.70;;;;;;;;;;6246732;28;20029;-75
2024/04/01 14:56:24;;;;;;;1.60;0.45;;;;;;;;;;6246631;28;20065;-75
2024/04/01 14:59:25;;;;;;;2.33;0.47;;;;;;;;;;6247741;28;20077;-75
2024/04/01 15:02:25;;;;;;;1.05;0.40;;;;;;;;;;6251233;28;20029;-76
2024/04/01 15:05:26;;;;;;;3.70;0.60;;;;;;;;;;6252034;28;20036;-75
2024/04/01 15:08:26;;;;;;;1.93;0.43;;;;;;;;;;6251504;28;20668;-75
2024/04/01 15:11:39;;;;;;;0.95;0.40;;;;;;;;;;6247695;28;20320;-75
2024/04/01 15:14:40;;;;;;;0.95;0.40;;;;;;;;;;6250420;28;20115;-75
2024/04/01 15:17:40;;;;;;;1.80;0.40;;;;;;;;;;6251272;28;20373;-75
2024/04/01 15:20:41;;;;;;;2.58;0.38;;;;;;;;;;6251271;28;20701;-75
2024/04/01 15:23:41;;;;;;;1.60;0.30;;;;;;;;;;6249854;28;20041;-75
2024/04/01 15:26:45;;;;;;;0.43;0.30;;;;;;;;;;6250715;28;20032;-75
2024/04/01 15:29:47;;;;;;;1.23;0.30;;;;;;;;;;6251281;28;20508;-75
2024/04/01 15:32:47;;;;;;;1.75;0.70;;;;;;;;;;6241306;28;20117;-75
2024/04/01 15:35:48;;;;;;;1.43;0.80;;;;;;;;;;6240093;28;20065;-75
2024/04/01 15:38:49;;;;;;;0.80;0.60;;;;;;;;;;6249249;28;20292;-80
2024/04/01 15:41:50;;;;;;;0.75;0.32;;;;;;;;;;6251610;28;20037;-80
2024/04/01 15:44:50;;;;;;;0.70;0.40;;;;;;;;;;6251310;28;20449;-80
2024/04/01 15:47:51;;;;;;;0.57;0.30;;;;;;;;;;6250575;28;20430;-80
2024/04/01 15:50:51;;;;;;;0.68;0.40;;;;;;;;;;6250463;28;20256;-80
2024/04/01 15:53:52;;;;;;;0.90;0.20;;;;;;;;;;6250385;28;20029;-80
2024/04/01 15:56:54;;;;;;;0.40;0.20;;;;;;;;;;6250034;28;20025;-80
2024/04/01 15:59:55;;;;;;;0.20;0.20;;;;;;;;;;6260138;28;20037;-80
2024/04/01 16:02:55;;;;;;;0.35;0.20;;;;;;;;;;6250760;28;20397;-79
2024/04/01 16:05:56;;;;;;;0.50;0.20;;;;;;;;;;6253650;28;20051;-79
2024/04/01 16:08:56;;;;;;;0.38;0.17;;;;;;;;;;6230218;28;20033;-80
2024/04/01 16:11:57;;;;;;;0.20;0.20;;;;;;;;;;6243660;28;20036;-80
2024/04/01 16:14:57;;;;;;;0.50;0.17;;;;;;;;;;6248854;28;20524;-80
2024/04/01 16:17:58;;;;;;;0.20;0.20;;;;;;;;;;6248262;28;20028;-81
2024/04/01 16:20:59;;;;;;;1.08;0.30;;;;;;;;;;6243100;28;20055;-81
2024/04/01 16:24:02;;;;;;;0.30;0.10;;;;;;;;;;6249588;28;20025;-81
2024/04/01 16:27:14;;;;;;;0.47;0.20;;;;;;;;;;6250013;28;20057;-81
2024/04/01 16:30:19;;;;;;;0.82;0.28;;;;;;;;;;6248337;28;20374;-78
2024/04/01 16:33:20;;;;;;;0.20;0.20;;;;;;;;;;6234045;28;20053;-77
2024/04/01 16:36:20;;;;;;;;;;;;;;;;;;6248048;28;20413;-77
2024/04/01 16:39:21;;;;;;;0.35;0.20;;;;;;;;;;6249375;28;20014;-77
2024/04/01 16:42:22;;;;;;;0.50;0.20;;;;;;;;;;6249436;28;20025;-76
2024/04/01 16:45:22;;;;;;;;;;;;;;;;;;6249276;28;20048;-76
2024/04/01 16:48:23;;;;;;;0.10;0.10;;;;;;;;;;6252917;28;19909;-77
2024/04/01 16:51:23;;;;;;;;;;;;;;;;;;6257207;28;20064;-76
2024/04/01 16:54:24;;;;;;;0.10;0.10;;;;;;;;;;6262132;28;19912;-77
2024/04/01 16:57:24;;;;;;;;;;;;;;;;;;6250165;28;20026;-77
2024/04/01 17:00:24;;;;;;;0.17;0.17;;;;;;;;;;6248301;28;20008;-77
2024/04/01 17:03:25;;;;;;;;;;;;;;;;;;6256323;28;20032;-77
2024/04/01 17:06:25;;;;;;;0.22;0.20;;;;;;;;;;6261287;28;19916;-76
2024/04/01 17:09:30;;;;;;;0.25;0.10;;;;;;;;;;6247776;28;20489;-78
2024/04/01 17:12:30;;;;;;;0.20;0.20;;;;;;;;;;6249369;28;20097;-78
2024/04/01 17:15:31;;;;;;;1.10;0.13;;;;;;;;;;6266662;28;20092;-78
2024/04/01 17:18:31;;;;;;;;;;;;;;;;;;6247006;28;20459;-78
2024/04/01 17:21:32;;;;;;;0.10;0.10;;;;;;;;;;6249332;28;19909;-78
2024/04/01 17:24:32;;;;;;;;;;;;;;;;;;6249563;28;20029;-81
2024/04/01 17:27:32;;;;;;;0.30;0.25;;;;;;;;;;6254311;28;19916;-78
2024/04/01 17:30:33;;;;;;;0.57;0.30;;;;;;;;;;6250667;28;20029;-78
2024/04/01 17:33:34;;;;;;;0.17;0.10;;;;;;;;;;6264351;28;20033;-78
2024/04/01 17:36:34;;;;;;;0.40;0.20;;;;;;;;;;6255725;28;20433;-78
2024/04/01 17:39:34;;;;;;;1.48;0.57;;;;;;;;;;6257157;28;20375;-76
2024/04/01 17:42:37;;;;;;;1.43;1.00;;;;;;;;;;6252753;28;20040;-77
2024/04/01 17:45:38;;;;;;;1.67;0.47;;;;;;;;;;6244535;28;20017;-76
2024/04/01 17:48:38;;;;;;;0.30;0.30;;;;;;;;;;6228410;28;20462;-77
2024/04/01 17:51:38;;;;;;;0.20;0.20;;;;;;;;;;6235315;28;20025;-75
2024/04/01 17:54:39;;;;;;;0.10;0.10;;;;;;;;;;6234263;28;20041;-76
2024/04/01 17:57:39;;;;;;;;;;;;;;;;;;6249079;28;20720;-75
2024/04/01 18:00:43;;;;;;;0.30;0.13;;;;;;;;;;6246725;28;19916;-75
2024/04/01 18:03:43;;;;;;;0.50;0.20;;;;;;;;;;6265298;28;20033;-75
2024/04/01 18:06:44;;;;;;;0.10;0.10;;;;;;;;;;6263907;28;20465;-75
2024/04/01 18:09:44;;;;;;;0.13;0.10;;;;;;;;;;6252542;28;20063;-75
2024/04/01 18:12:45;;;;;;;0.20;0.20;;;;;;;;;;6253658;28;20018;-75
2024/04/01 18:15:45;;;;;;;0.10;0.10;;;;;;;;;;6237934;28;20048;-77
2024/04/01 18:18:46;;;;;;;0.10;0.10;;;;;;;;;;6235390;28;20018;-76
2024/04/01 18:21:46;;;;;;;0.55;0.13;;;;;;;;;;6244672;28;20087;-75